sensor_id;sensor_type;location;lat;lon;timestamp;P1;durP1;ratioP1;P2;durP2;ratioP2
32228;SDS011;18717;48.034;11.186;2023-04-03T00:00:39;25.17;;;14.18;;
32228;SDS011;18717;48.034;11.186;2023-04-03T00:03:06;16.75;;;12.65;;
32228;SDS011;18717;48.034;11.186;2023-04-03T00:05:35;16.85;;;13.85;;
32228;SDS011;18717;48.034;11.186;2023-04-03T00:08:03;15.25;;;11.68;;
32228;SDS011;18717;48.034;11.186;2023-04-03T00:10:34;17.15;;;13.80;;
32228;SDS011;18717;48.034;11.186;2023-04-03T00:13:02;18.10;;;12.75;;
32228;SDS011;18717;48.034;11.186;2023-04-03T00:15:30;18.70;;;14.63;;
32228;SDS011;18717;48.034;11.186;2023-04-03T00:17:58;16.17;;;12.55;;
32228;SDS011;18717;48.034;11.186;2023-04-03T00:20:26;18.60;;;13.50;;
32228;SDS011;18717;48.034;11.186;2023-04-03T00:22:56;25.33;;;13.63;;
32228;SDS011;18717;48.034;11.186;2023-04-03T00:25:23;16.33;;;13.25;;
32228;SDS011;18717;48.034;11.186;2023-04-03T00:27:51;14.10;;;12.15;;
32228;SDS011;18717;48.034;11.186;2023-04-03T00:30:19;21.83;;;14.35;;
32228;SDS011;18717;48.034;11.186;2023-04-03T00:32:48;14.82;;;12.98;;
32228;SDS011;18717;48.034;11.186;2023-04-03T00:35:16;25.65;;;14.35;;
32228;SDS011;18717;48.034;11.186;2023-04-03T00:37:44;20.50;;;14.65;;
32228;SDS011;18717;48.034;11.186;2023-04-03T00:40:14;20.88;;;12.88;;
32228;SDS011;18717;48.034;11.186;2023-04-03T00:42:43;18.05;;;13.25;;
32228;SDS011;18717;48.034;11.186;2023-04-03T00:45:23;18.77;;;13.27;;
32228;SDS011;18717;48.034;11.186;2023-04-03T00:47:53;15.93;;;13.57;;
32228;SDS011;18717;48.034;11.186;2023-04-03T00:50:22;18.75;;;13.00;;
32228;SDS011;18717;48.034;11.186;2023-04-03T00:52:50;14.57;;;11.93;;
32228;SDS011;18717;48.034;11.186;2023-04-03T00:55:19;17.23;;;13.82;;
32228;SDS011;18717;48.034;11.186;2023-04-03T00:57:47;18.55;;;13.48;;
32228;SDS011;18717;48.034;11.186;2023-04-03T01:00:16;20.33;;;13.07;;
32228;SDS011;18717;48.034;11.186;2023-04-03T01:02:46;12.97;;;9.90;;
32228;SDS011;18717;48.034;11.186;2023-04-03T01:05:14;15.57;;;12.50;;
32228;SDS011;18717;48.034;11.186;2023-04-03T01:07:42;13.75;;;11.90;;
32228;SDS011;18717;48.034;11.186;2023-04-03T01:10:11;13.45;;;12.07;;
32228;SDS011;18717;48.034;11.186;2023-04-03T01:12:42;13.98;;;12.00;;
32228;SDS011;18717;48.034;11.186;2023-04-03T01:15:13;14.73;;;12.73;;
32228;SDS011;18717;48.034;11.186;2023-04-03T01:17:42;15.93;;;13.05;;
32228;SDS011;18717;48.034;11.186;2023-04-03T01:20:31;14.48;;;12.35;;
32228;SDS011;18717;48.034;11.186;2023-04-03T01:23:12;17.33;;;12.80;;
32228;SDS011;18717;48.034;11.186;2023-04-03T01:25:46;19.33;;;13.82;;
32228;SDS011;18717;48.034;11.186;2023-04-03T01:28:17;16.00;;;11.80;;
32228;SDS011;18717;48.034;11.186;2023-04-03T01:30:48;13.82;;;12.05;;
32228;SDS011;18717;48.034;11.186;2023-04-03T01:33:19;16.08;;;11.98;;
32228;SDS011;18717;48.034;11.186;2023-04-03T01:35:47;14.90;;;12.43;;
32228;SDS011;18717;48.034;11.186;2023-04-03T01:38:14;16.13;;;13.05;;
32228;SDS011;18717;48.034;11.186;2023-04-03T01:40:42;14.38;;;12.50;;
32228;SDS011;18717;48.034;11.186;2023-04-03T01:43:11;13.30;;;11.68;;
32228;SDS011;18717;48.034;11.186;2023-04-03T01:45:39;13.20;;;11.23;;
32228;SDS011;18717;48.034;11.186;2023-04-03T01:48:06;13.93;;;12.10;;
32228;SDS011;18717;48.034;11.186;2023-04-03T01:50:36;13.65;;;12.07;;
32228;SDS011;18717;48.034;11.186;2023-04-03T01:53:04;15.68;;;11.65;;
32228;SDS011;18717;48.034;11.186;2023-04-03T01:55:32;13.20;;;11.48;;
32228;SDS011;18717;48.034;11.186;2023-04-03T01:57:59;14.88;;;11.35;;
32228;SDS011;18717;48.034;11.186;2023-04-03T02:00:27;13.05;;;11.60;;
32228;SDS011;18717;48.034;11.186;2023-04-03T02:02:55;13.57;;;12.18;;
32228;SDS011;18717;48.034;11.186;2023-04-03T02:05:23;13.25;;;11.95;;
32228;SDS011;18717;48.034;11.186;2023-04-03T02:07:52;12.65;;;10.80;;
32228;SDS011;18717;48.034;11.186;2023-04-03T02:10:19;12.88;;;10.90;;
32228;SDS011;18717;48.034;11.186;2023-04-03T02:12:47;13.70;;;11.68;;
32228;SDS011;18717;48.034;11.186;2023-04-03T02:15:14;12.38;;;11.10;;
32228;SDS011;18717;48.034;11.186;2023-04-03T02:17:42;13.85;;;11.00;;
32228;SDS011;18717;48.034;11.186;2023-04-03T02:20:10;12.90;;;11.40;;
32228;SDS011;18717;48.034;11.186;2023-04-03T02:22:38;14.35;;;11.55;;
32228;SDS011;18717;48.034;11.186;2023-04-03T02:25:08;12.93;;;11.50;;
32228;SDS011;18717;48.034;11.186;2023-04-03T02:27:36;13.90;;;12.43;;
32228;SDS011;18717;48.034;11.186;2023-04-03T02:30:04;12.45;;;10.98;;
32228;SDS011;18717;48.034;11.186;2023-04-03T02:32:33;11.48;;;10.45;;
32228;SDS011;18717;48.034;11.186;2023-04-03T02:35:00;11.93;;;10.73;;
32228;SDS011;18717;48.034;11.186;2023-04-03T02:37:28;14.20;;;11.02;;
32228;SDS011;18717;48.034;11.186;2023-04-03T02:39:56;14.63;;;10.65;;
32228;SDS011;18717;48.034;11.186;2023-04-03T02:42:25;11.23;;;10.18;;
32228;SDS011;18717;48.034;11.186;2023-04-03T02:44:52;12.85;;;11.35;;
32228;SDS011;18717;48.034;11.186;2023-04-03T02:47:20;14.10;;;10.30;;
32228;SDS011;18717;48.034;11.186;2023-04-03T02:49:48;10.82;;;9.73;;
32228;SDS011;18717;48.034;11.186;2023-04-03T02:52:15;13.00;;;11.60;;
32228;SDS011;18717;48.034;11.186;2023-04-03T02:54:43;13.35;;;10.45;;
32228;SDS011;18717;48.034;11.186;2023-04-03T02:57:10;10.70;;;9.60;;
32228;SDS011;18717;48.034;11.186;2023-04-03T02:59:40;12.40;;;11.15;;
32228;SDS011;18717;48.034;11.186;2023-04-03T03:02:08;13.63;;;10.48;;
32228;SDS011;18717;48.034;11.186;2023-04-03T03:04:36;17.48;;;10.88;;
32228;SDS011;18717;48.034;11.186;2023-04-03T03:07:03;12.25;;;10.98;;
32228;SDS011;18717;48.034;11.186;2023-04-03T03:09:31;15.02;;;10.90;;
32228;SDS011;18717;48.034;11.186;2023-04-03T03:11:59;13.93;;;12.40;;
32228;SDS011;18717;48.034;11.186;2023-04-03T03:14:26;11.63;;;10.43;;
32228;SDS011;18717;48.034;11.186;2023-04-03T03:16:56;13.07;;;11.55;;
32228;SDS011;18717;48.034;11.186;2023-04-03T03:19:23;14.57;;;11.98;;
32228;SDS011;18717;48.034;11.186;2023-04-03T03:21:51;14.95;;;10.98;;
32228;SDS011;18717;48.034;11.186;2023-04-03T03:24:18;11.88;;;10.30;;
32228;SDS011;18717;48.034;11.186;2023-04-03T03:26:46;17.50;;;10.63;;
32228;SDS011;18717;48.034;11.186;2023-04-03T03:29:14;11.88;;;10.77;;
32228;SDS011;18717;48.034;11.186;2023-04-03T03:31:42;12.77;;;11.15;;
32228;SDS011;18717;48.034;11.186;2023-04-03T03:34:11;11.38;;;10.32;;
32228;SDS011;18717;48.034;11.186;2023-04-03T03:36:39;12.05;;;10.80;;
32228;SDS011;18717;48.034;11.186;2023-04-03T03:39:07;13.80;;;12.00;;
32228;SDS011;18717;48.034;11.186;2023-04-03T03:41:34;14.63;;;10.77;;
32228;SDS011;18717;48.034;11.186;2023-04-03T03:44:02;13.00;;;11.50;;
32228;SDS011;18717;48.034;11.186;2023-04-03T03:46:30;13.07;;;10.60;;
32228;SDS011;18717;48.034;11.186;2023-04-03T03:48:57;13.43;;;10.70;;
32228;SDS011;18717;48.034;11.186;2023-04-03T03:51:27;13.23;;;10.90;;
32228;SDS011;18717;48.034;11.186;2023-04-03T03:53:54;12.32;;;10.40;;
32228;SDS011;18717;48.034;11.186;2023-04-03T03:56:22;12.10;;;10.32;;
32228;SDS011;18717;48.034;11.186;2023-04-03T03:58:49;12.60;;;11.40;;
32228;SDS011;18717;48.034;11.186;2023-04-03T04:01:17;13.30;;;10.88;;
32228;SDS011;18717;48.034;11.186;2023-04-03T04:03:45;11.25;;;10.05;;
32228;SDS011;18717;48.034;11.186;2023-04-03T04:06:13;11.38;;;10.02;;
32228;SDS011;18717;48.034;11.186;2023-04-03T04:08:42;12.45;;;11.13;;
32228;SDS011;18717;48.034;11.186;2023-04-03T04:11:09;11.35;;;10.25;;
32228;SDS011;18717;48.034;11.186;2023-04-03T04:13:37;14.50;;;10.07;;
32228;SDS011;18717;48.034;11.186;2023-04-03T04:16:05;13.38;;;10.10;;
32228;SDS011;18717;48.034;11.186;2023-04-03T04:18:33;12.25;;;10.13;;
32228;SDS011;18717;48.034;11.186;2023-04-03T04:21:01;14.45;;;10.80;;
32228;SDS011;18717;48.034;11.186;2023-04-03T04:23:29;12.52;;;10.30;;
32228;SDS011;18717;48.034;11.186;2023-04-03T04:25:58;12.38;;;10.07;;
32228;SDS011;18717;48.034;11.186;2023-04-03T04:28:26;12.10;;;10.43;;
32228;SDS011;18717;48.034;11.186;2023-04-03T04:30:53;11.18;;;10.07;;
32228;SDS011;18717;48.034;11.186;2023-04-03T04:33:21;11.70;;;10.50;;
32228;SDS011;18717;48.034;11.186;2023-04-03T04:35:49;13.85;;;11.80;;
32228;SDS011;18717;48.034;11.186;2023-04-03T04:38:17;11.55;;;10.43;;
32228;SDS011;18717;48.034;11.186;2023-04-03T04:40:46;11.30;;;10.20;;
32228;SDS011;18717;48.034;11.186;2023-04-03T04:43:15;10.77;;;9.63;;
32228;SDS011;18717;48.034;11.186;2023-04-03T04:45:43;14.13;;;10.93;;
32228;SDS011;18717;48.034;11.186;2023-04-03T04:48:11;10.55;;;9.55;;
32228;SDS011;18717;48.034;11.186;2023-04-03T04:50:38;14.27;;;11.43;;
32228;SDS011;18717;48.034;11.186;2023-04-03T04:53:06;10.77;;;9.73;;
32228;SDS011;18717;48.034;11.186;2023-04-03T04:55:37;11.80;;;10.70;;
32228;SDS011;18717;48.034;11.186;2023-04-03T04:58:04;11.18;;;10.00;;
32228;SDS011;18717;48.034;11.186;2023-04-03T05:00:33;10.88;;;9.80;;
32228;SDS011;18717;48.034;11.186;2023-04-03T05:03:01;11.82;;;10.43;;
32228;SDS011;18717;48.034;11.186;2023-04-03T05:05:29;11.02;;;9.82;;
32228;SDS011;18717;48.034;11.186;2023-04-03T05:07:57;11.27;;;10.27;;
32228;SDS011;18717;48.034;11.186;2023-04-03T05:10:24;12.80;;;10.20;;
32228;SDS011;18717;48.034;11.186;2023-04-03T05:12:52;11.60;;;10.52;;
32228;SDS011;18717;48.034;11.186;2023-04-03T05:15:20;12.18;;;10.30;;
32228;SDS011;18717;48.034;11.186;2023-04-03T05:17:49;11.50;;;10.30;;
32228;SDS011;18717;48.034;11.186;2023-04-03T05:20:17;12.55;;;10.68;;
32228;SDS011;18717;48.034;11.186;2023-04-03T05:22:45;12.73;;;10.45;;
32228;SDS011;18717;48.034;11.186;2023-04-03T05:25:12;12.48;;;10.35;;
32228;SDS011;18717;48.034;11.186;2023-04-03T05:27:40;11.85;;;10.65;;
32228;SDS011;18717;48.034;11.186;2023-04-03T05:30:08;11.32;;;10.27;;
32228;SDS011;18717;48.034;11.186;2023-04-03T05:32:36;12.00;;;10.20;;
32228;SDS011;18717;48.034;11.186;2023-04-03T05:35:06;14.15;;;10.85;;
32228;SDS011;18717;48.034;11.186;2023-04-03T05:37:34;12.80;;;11.32;;
32228;SDS011;18717;48.034;11.186;2023-04-03T05:40:03;13.55;;;10.50;;
32228;SDS011;18717;48.034;11.186;2023-04-03T05:42:31;13.35;;;10.98;;
32228;SDS011;18717;48.034;11.186;2023-04-03T05:44:59;12.55;;;10.23;;
32228;SDS011;18717;48.034;11.186;2023-04-03T05:47:26;11.60;;;10.32;;
32228;SDS011;18717;48.034;11.186;2023-04-03T05:49:54;12.70;;;10.38;;
32228;SDS011;18717;48.034;11.186;2023-04-03T05:52:25;12.55;;;11.27;;
32228;SDS011;18717;48.034;11.186;2023-04-03T05:54:54;16.80;;;10.60;;
32228;SDS011;18717;48.034;11.186;2023-04-03T05:57:22;14.05;;;11.40;;
32228;SDS011;18717;48.034;11.186;2023-04-03T05:59:50;13.32;;;10.32;;
32228;SDS011;18717;48.034;11.186;2023-04-03T06:02:18;11.15;;;9.77;;
32228;SDS011;18717;48.034;11.186;2023-04-03T06:04:47;13.93;;;11.20;;
32228;SDS011;18717;48.034;11.186;2023-04-03T06:07:16;13.48;;;10.95;;
32228;SDS011;18717;48.034;11.186;2023-04-03T06:09:48;14.43;;;10.65;;
32228;SDS011;18717;48.034;11.186;2023-04-03T06:12:17;12.68;;;10.63;;
32228;SDS011;18717;48.034;11.186;2023-04-03T06:14:45;13.48;;;10.25;;
32228;SDS011;18717;48.034;11.186;2023-04-03T06:17:13;13.85;;;10.45;;
32228;SDS011;18717;48.034;11.186;2023-04-03T06:19:41;17.95;;;10.65;;
32228;SDS011;18717;48.034;11.186;2023-04-03T06:22:09;18.65;;;11.85;;
32228;SDS011;18717;48.034;11.186;2023-04-03T06:24:37;15.50;;;11.55;;
32228;SDS011;18717;48.034;11.186;2023-04-03T06:27:06;12.75;;;11.38;;
32228;SDS011;18717;48.034;11.186;2023-04-03T06:29:34;12.63;;;10.68;;
32228;SDS011;18717;48.034;11.186;2023-04-03T06:32:03;11.80;;;10.20;;
32228;SDS011;18717;48.034;11.186;2023-04-03T06:34:31;11.60;;;10.45;;
32228;SDS011;18717;48.034;11.186;2023-04-03T06:36:58;11.27;;;10.10;;
32228;SDS011;18717;48.034;11.186;2023-04-03T06:39:26;11.52;;;10.35;;
32228;SDS011;18717;48.034;11.186;2023-04-03T06:41:54;12.50;;;10.60;;
32228;SDS011;18717;48.034;11.186;2023-04-03T06:44:23;9.93;;;8.93;;
32228;SDS011;18717;48.034;11.186;2023-04-03T06:46:50;11.80;;;10.50;;
32228;SDS011;18717;48.034;11.186;2023-04-03T06:49:20;11.60;;;10.35;;
32228;SDS011;18717;48.034;11.186;2023-04-03T06:51:47;11.75;;;10.75;;
32228;SDS011;18717;48.034;11.186;2023-04-03T06:54:15;16.27;;;10.27;;
32228;SDS011;18717;48.034;11.186;2023-04-03T06:56:43;12.57;;;10.38;;
32228;SDS011;18717;48.034;11.186;2023-04-03T06:59:11;11.93;;;10.77;;
32228;SDS011;18717;48.034;11.186;2023-04-03T07:01:41;12.43;;;11.20;;
32228;SDS011;18717;48.034;11.186;2023-04-03T07:04:08;13.85;;;10.48;;
32228;SDS011;18717;48.034;11.186;2023-04-03T07:06:36;11.63;;;10.52;;
32228;SDS011;18717;48.034;11.186;2023-04-03T07:09:04;13.13;;;10.32;;
32228;SDS011;18717;48.034;11.186;2023-04-03T07:11:32;14.55;;;11.25;;
32228;SDS011;18717;48.034;11.186;2023-04-03T07:13:59;11.00;;;9.82;;
32228;SDS011;18717;48.034;11.186;2023-04-03T07:16:27;11.43;;;10.35;;
32228;SDS011;18717;48.034;11.186;2023-04-03T07:18:58;11.45;;;10.35;;
32228;SDS011;18717;48.034;11.186;2023-04-03T07:21:26;11.20;;;10.20;;
32228;SDS011;18717;48.034;11.186;2023-04-03T07:23:54;13.85;;;10.00;;
32228;SDS011;18717;48.034;11.186;2023-04-03T07:26:22;11.93;;;9.60;;
32228;SDS011;18717;48.034;11.186;2023-04-03T07:28:49;12.60;;;9.80;;
32228;SDS011;18717;48.034;11.186;2023-04-03T07:31:17;13.43;;;9.88;;
32228;SDS011;18717;48.034;11.186;2023-04-03T07:33:45;11.40;;;10.27;;
32228;SDS011;18717;48.034;11.186;2023-04-03T07:36:17;13.15;;;10.45;;
32228;SDS011;18717;48.034;11.186;2023-04-03T07:38:45;12.18;;;10.05;;
32228;SDS011;18717;48.034;11.186;2023-04-03T07:41:13;11.55;;;10.20;;
32228;SDS011;18717;48.034;11.186;2023-04-03T07:43:43;10.82;;;9.85;;
32228;SDS011;18717;48.034;11.186;2023-04-03T07:46:11;14.18;;;12.15;;
32228;SDS011;18717;48.034;11.186;2023-04-03T07:48:39;10.70;;;9.65;;
32228;SDS011;18717;48.034;11.186;2023-04-03T07:51:06;11.05;;;10.05;;
32228;SDS011;18717;48.034;11.186;2023-04-03T07:53:35;10.98;;;9.93;;
32228;SDS011;18717;48.034;11.186;2023-04-03T07:56:03;11.30;;;10.27;;
32228;SDS011;18717;48.034;11.186;2023-04-03T07:58:31;11.77;;;10.57;;
32228;SDS011;18717;48.034;11.186;2023-04-03T08:00:59;24.80;;;16.83;;
32228;SDS011;18717;48.034;11.186;2023-04-03T08:03:27;13.55;;;12.23;;
32228;SDS011;18717;48.034;11.186;2023-04-03T08:05:54;11.68;;;10.60;;
32228;SDS011;18717;48.034;11.186;2023-04-03T08:08:30;11.93;;;10.70;;
32228;SDS011;18717;48.034;11.186;2023-04-03T08:11:00;10.23;;;9.32;;
32228;SDS011;18717;48.034;11.186;2023-04-03T08:13:28;10.82;;;9.93;;
32228;SDS011;18717;48.034;11.186;2023-04-03T08:15:57;15.27;;;10.63;;
32228;SDS011;18717;48.034;11.186;2023-04-03T08:18:25;11.63;;;10.50;;
32228;SDS011;18717;48.034;11.186;2023-04-03T08:20:53;11.98;;;10.68;;
32228;SDS011;18717;48.034;11.186;2023-04-03T08:23:21;11.18;;;10.13;;
32228;SDS011;18717;48.034;11.186;2023-04-03T08:25:49;11.05;;;10.05;;
32228;SDS011;18717;48.034;11.186;2023-04-03T08:28:18;11.30;;;10.05;;
32228;SDS011;18717;48.034;11.186;2023-04-03T08:30:46;12.98;;;10.02;;
32228;SDS011;18717;48.034;11.186;2023-04-03T08:33:13;11.60;;;10.40;;
32228;SDS011;18717;48.034;11.186;2023-04-03T08:35:41;10.90;;;10.00;;
32228;SDS011;18717;48.034;11.186;2023-04-03T08:38:10;11.75;;;10.77;;
32228;SDS011;18717;48.034;11.186;2023-04-03T08:40:37;11.40;;;10.32;;
32228;SDS011;18717;48.034;11.186;2023-04-03T08:43:12;14.65;;;10.95;;
32228;SDS011;18717;48.034;11.186;2023-04-03T08:45:50;12.07;;;10.35;;
32228;SDS011;18717;48.034;11.186;2023-04-03T08:48:20;10.57;;;9.77;;
32228;SDS011;18717;48.034;11.186;2023-04-03T08:50:50;12.02;;;10.98;;
32228;SDS011;18717;48.034;11.186;2023-04-03T08:53:20;9.88;;;8.98;;
32228;SDS011;18717;48.034;11.186;2023-04-03T08:55:49;10.88;;;9.90;;
32228;SDS011;18717;48.034;11.186;2023-04-03T08:58:18;10.70;;;9.70;;
32228;SDS011;18717;48.034;11.186;2023-04-03T09:00:49;12.70;;;11.43;;
32228;SDS011;18717;48.034;11.186;2023-04-03T09:03:19;12.10;;;10.95;;
32228;SDS011;18717;48.034;11.186;2023-04-03T09:05:48;10.65;;;9.55;;
32228;SDS011;18717;48.034;11.186;2023-04-03T09:08:23;11.10;;;10.00;;
32228;SDS011;18717;48.034;11.186;2023-04-03T09:10:57;11.68;;;10.48;;
32228;SDS011;18717;48.034;11.186;2023-04-03T09:13:34;12.40;;;10.82;;
32228;SDS011;18717;48.034;11.186;2023-04-03T09:16:05;11.65;;;10.65;;
32228;SDS011;18717;48.034;11.186;2023-04-03T09:18:43;11.27;;;10.18;;
32228;SDS011;18717;48.034;11.186;2023-04-03T09:21:13;11.30;;;10.10;;
32228;SDS011;18717;48.034;11.186;2023-04-03T09:23:45;10.88;;;9.55;;
32228;SDS011;18717;48.034;11.186;2023-04-03T09:26:14;11.35;;;10.20;;
32228;SDS011;18717;48.034;11.186;2023-04-03T09:28:46;11.98;;;10.88;;
32228;SDS011;18717;48.034;11.186;2023-04-03T09:31:18;11.73;;;10.73;;
32228;SDS011;18717;48.034;11.186;2023-04-03T09:33:48;12.35;;;11.15;;
32228;SDS011;18717;48.034;11.186;2023-04-03T09:39:09;12.82;;;11.55;;
32228;SDS011;18717;48.034;11.186;2023-04-03T09:44:19;11.73;;;10.70;;
32228;SDS011;18717;48.034;11.186;2023-04-03T09:46:48;12.52;;;11.35;;
32228;SDS011;18717;48.034;11.186;2023-04-03T09:49:16;12.05;;;10.75;;
32228;SDS011;18717;48.034;11.186;2023-04-03T09:51:45;16.95;;;12.77;;
32228;SDS011;18717;48.034;11.186;2023-04-03T09:54:24;12.02;;;11.13;;
32228;SDS011;18717;48.034;11.186;2023-04-03T09:57:06;11.77;;;10.88;;
32228;SDS011;18717;48.034;11.186;2023-04-03T09:59:38;11.38;;;10.30;;
32228;SDS011;18717;48.034;11.186;2023-04-03T10:02:21;11.70;;;10.50;;
32228;SDS011;18717;48.034;11.186;2023-04-03T10:04:54;12.00;;;10.40;;
32228;SDS011;18717;48.034;11.186;2023-04-03T10:07:35;11.55;;;10.45;;
32228;SDS011;18717;48.034;11.186;2023-04-03T10:10:15;10.98;;;10.18;;
32228;SDS011;18717;48.034;11.186;2023-04-03T10:12:46;11.38;;;10.48;;
32228;SDS011;18717;48.034;11.186;2023-04-03T10:15:16;11.95;;;10.70;;
32228;SDS011;18717;48.034;11.186;2023-04-03T10:17:50;10.90;;;10.10;;
32228;SDS011;18717;48.034;11.186;2023-04-03T10:20:30;11.00;;;10.20;;
32228;SDS011;18717;48.034;11.186;2023-04-03T10:23:03;13.45;;;10.02;;
32228;SDS011;18717;48.034;11.186;2023-04-03T10:25:43;13.05;;;9.95;;
32228;SDS011;18717;48.034;11.186;2023-04-03T10:28:19;11.40;;;10.43;;
32228;SDS011;18717;48.034;11.186;2023-04-03T10:30:53;10.93;;;10.23;;
32228;SDS011;18717;48.034;11.186;2023-04-03T10:33:27;10.85;;;9.98;;
32228;SDS011;18717;48.034;11.186;2023-04-03T10:36:06;11.60;;;10.70;;
32228;SDS011;18717;48.034;11.186;2023-04-03T10:38:43;11.15;;;9.95;;
32228;SDS011;18717;48.034;11.186;2023-04-03T10:41:17;10.10;;;9.23;;
32228;SDS011;18717;48.034;11.186;2023-04-03T10:43:50;10.43;;;9.73;;
32228;SDS011;18717;48.034;11.186;2023-04-03T10:46:28;10.55;;;9.82;;
32228;SDS011;18717;48.034;11.186;2023-04-03T10:49:01;10.68;;;9.88;;
32228;SDS011;18717;48.034;11.186;2023-04-03T10:51:35;10.75;;;9.85;;
32228;SDS011;18717;48.034;11.186;2023-04-03T10:54:05;10.85;;;9.93;;
32228;SDS011;18717;48.034;11.186;2023-04-03T10:56:37;10.00;;;9.25;;
32228;SDS011;18717;48.034;11.186;2023-04-03T10:59:11;11.45;;;10.25;;
32228;SDS011;18717;48.034;11.186;2023-04-03T11:01:45;11.27;;;10.40;;
32228;SDS011;18717;48.034;11.186;2023-04-03T11:04:16;12.35;;;11.10;;
32228;SDS011;18717;48.034;11.186;2023-04-03T11:06:46;12.68;;;11.48;;
32228;SDS011;18717;48.034;11.186;2023-04-03T11:09:18;11.98;;;10.45;;
32228;SDS011;18717;48.034;11.186;2023-04-03T11:11:48;12.00;;;11.00;;
32228;SDS011;18717;48.034;11.186;2023-04-03T11:14:21;10.63;;;9.73;;
32228;SDS011;18717;48.034;11.186;2023-04-03T11:16:58;12.25;;;11.00;;
32228;SDS011;18717;48.034;11.186;2023-04-03T11:19:33;11.40;;;10.18;;
32228;SDS011;18717;48.034;11.186;2023-04-03T11:22:03;11.57;;;10.43;;
32228;SDS011;18717;48.034;11.186;2023-04-03T11:24:36;12.18;;;10.93;;
32228;SDS011;18717;48.034;11.186;2023-04-03T11:27:08;11.20;;;10.30;;
32228;SDS011;18717;48.034;11.186;2023-04-03T11:29:40;11.50;;;10.45;;
32228;SDS011;18717;48.034;11.186;2023-04-03T11:32:11;11.13;;;10.18;;
32228;SDS011;18717;48.034;11.186;2023-04-03T11:34:49;11.02;;;10.23;;
32228;SDS011;18717;48.034;11.186;2023-04-03T11:37:20;12.50;;;11.27;;
32228;SDS011;18717;48.034;11.186;2023-04-03T11:39:53;15.45;;;10.90;;
32228;SDS011;18717;48.034;11.186;2023-04-03T11:42:25;11.53;;;10.63;;
32228;SDS011;18717;48.034;11.186;2023-04-03T11:47:52;10.90;;;9.90;;
32228;SDS011;18717;48.034;11.186;2023-04-03T11:50:32;12.30;;;10.07;;
32228;SDS011;18717;48.034;11.186;2023-04-03T11:53:26;11.10;;;10.10;;
32228;SDS011;18717;48.034;11.186;2023-04-03T11:56:06;10.77;;;9.73;;
32228;SDS011;18717;48.034;11.186;2023-04-03T12:01:47;9.63;;;8.93;;
32228;SDS011;18717;48.034;11.186;2023-04-03T12:04:17;11.68;;;10.48;;
32228;SDS011;18717;48.034;11.186;2023-04-03T12:06:50;10.55;;;9.52;;
32228;SDS011;18717;48.034;11.186;2023-04-03T12:12:31;12.35;;;8.80;;
32228;SDS011;18717;48.034;11.186;2023-04-03T12:15:21;9.75;;;7.13;;
32228;SDS011;18717;48.034;11.186;2023-04-03T12:17:51;10.88;;;10.02;;
32228;SDS011;18717;48.034;11.186;2023-04-03T12:23:27;16.23;;;9.35;;
32228;SDS011;18717;48.034;11.186;2023-04-03T12:26:00;9.95;;;9.15;;
32228;SDS011;18717;48.034;11.186;2023-04-03T12:28:48;9.50;;;8.55;;
32228;SDS011;18717;48.034;11.186;2023-04-03T12:31:16;11.48;;;9.10;;
32228;SDS011;18717;48.034;11.186;2023-04-03T12:33:50;9.40;;;8.50;;
32228;SDS011;18717;48.034;11.186;2023-04-03T12:36:30;9.85;;;8.88;;
32228;SDS011;18717;48.034;11.186;2023-04-03T12:42:06;10.85;;;9.00;;
32228;SDS011;18717;48.034;11.186;2023-04-03T12:44:45;9.30;;;8.57;;
32228;SDS011;18717;48.034;11.186;2023-04-03T12:47:25;8.63;;;8.02;;
32228;SDS011;18717;48.034;11.186;2023-04-03T12:49:56;9.98;;;9.07;;
32228;SDS011;18717;48.034;11.186;2023-04-03T12:52:30;8.20;;;7.70;;
32228;SDS011;18717;48.034;11.186;2023-04-03T12:55:01;8.95;;;8.15;;
32228;SDS011;18717;48.034;11.186;2023-04-03T12:57:31;8.93;;;8.20;;
32228;SDS011;18717;48.034;11.186;2023-04-03T12:59:59;9.05;;;8.23;;
32228;SDS011;18717;48.034;11.186;2023-04-03T13:02:27;9.23;;;8.63;;
32228;SDS011;18717;48.034;11.186;2023-04-03T13:04:57;8.82;;;8.23;;
32228;SDS011;18717;48.034;11.186;2023-04-03T13:07:27;9.48;;;8.02;;
32228;SDS011;18717;48.034;11.186;2023-04-03T13:10:01;9.30;;;8.60;;
32228;SDS011;18717;48.034;11.186;2023-04-03T13:12:31;9.35;;;8.63;;
32228;SDS011;18717;48.034;11.186;2023-04-03T13:15:00;8.95;;;8.35;;
32228;SDS011;18717;48.034;11.186;2023-04-03T13:17:30;6.10;;;5.68;;
32228;SDS011;18717;48.034;11.186;2023-04-03T13:20:09;9.32;;;8.52;;
32228;SDS011;18717;48.034;11.186;2023-04-03T13:22:39;8.60;;;8.10;;
32228;SDS011;18717;48.034;11.186;2023-04-03T13:25:13;8.57;;;7.97;;
32228;SDS011;18717;48.034;11.186;2023-04-03T13:27:42;9.55;;;8.65;;
32228;SDS011;18717;48.034;11.186;2023-04-03T13:30:22;8.68;;;7.95;;
32228;SDS011;18717;48.034;11.186;2023-04-03T13:32:53;8.43;;;7.88;;
32228;SDS011;18717;48.034;11.186;2023-04-03T13:35:30;9.35;;;8.65;;
32228;SDS011;18717;48.034;11.186;2023-04-03T13:38:02;9.15;;;8.35;;
32228;SDS011;18717;48.034;11.186;2023-04-03T13:40:32;8.93;;;8.32;;
32228;SDS011;18717;48.034;11.186;2023-04-03T13:43:16;8.93;;;8.27;;
32228;SDS011;18717;48.034;11.186;2023-04-03T13:45:59;9.20;;;8.57;;
32228;SDS011;18717;48.034;11.186;2023-04-03T13:48:35;9.55;;;8.73;;
32228;SDS011;18717;48.034;11.186;2023-04-03T13:51:05;10.25;;;9.35;;
32228;SDS011;18717;48.034;11.186;2023-04-03T13:53:43;9.48;;;8.63;;
32228;SDS011;18717;48.034;11.186;2023-04-03T13:56:16;9.20;;;8.60;;
32228;SDS011;18717;48.034;11.186;2023-04-03T13:58:55;9.50;;;8.70;;
32228;SDS011;18717;48.034;11.186;2023-04-03T14:01:32;9.55;;;8.93;;
32228;SDS011;18717;48.034;11.186;2023-04-03T14:04:09;10.32;;;9.48;;
32228;SDS011;18717;48.034;11.186;2023-04-03T14:06:39;10.15;;;9.18;;
32228;SDS011;18717;48.034;11.186;2023-04-03T14:09:09;9.38;;;8.77;;
32228;SDS011;18717;48.034;11.186;2023-04-03T14:11:36;11.43;;;9.43;;
32228;SDS011;18717;48.034;11.186;2023-04-03T14:14:06;8.88;;;8.00;;
32228;SDS011;18717;48.034;11.186;2023-04-03T14:16:40;9.40;;;8.68;;
32228;SDS011;18717;48.034;11.186;2023-04-03T14:19:11;9.65;;;8.80;;
32228;SDS011;18717;48.034;11.186;2023-04-03T14:21:45;9.48;;;8.55;;
32228;SDS011;18717;48.034;11.186;2023-04-03T14:24:14;9.25;;;8.60;;
32228;SDS011;18717;48.034;11.186;2023-04-03T14:26:43;9.20;;;8.45;;
32228;SDS011;18717;48.034;11.186;2023-04-03T14:29:11;12.45;;;9.05;;
32228;SDS011;18717;48.034;11.186;2023-04-03T14:31:40;8.85;;;8.10;;
32228;SDS011;18717;48.034;11.186;2023-04-03T14:34:09;8.73;;;8.10;;
32228;SDS011;18717;48.034;11.186;2023-04-03T14:36:37;8.77;;;8.18;;
32228;SDS011;18717;48.034;11.186;2023-04-03T14:39:06;9.43;;;8.63;;
32228;SDS011;18717;48.034;11.186;2023-04-03T14:41:36;10.05;;;9.05;;
32228;SDS011;18717;48.034;11.186;2023-04-03T14:44:03;15.50;;;10.45;;
32228;SDS011;18717;48.034;11.186;2023-04-03T14:46:32;9.88;;;9.18;;
32228;SDS011;18717;48.034;11.186;2023-04-03T14:49:22;9.27;;;8.68;;
32228;SDS011;18717;48.034;11.186;2023-04-03T14:51:52;10.95;;;10.07;;